createdAt,value
2017-01-13T00:00:53.608Z,2.32
2017-01-13T00:02:04.318Z,2.25
2017-01-13T00:03:15.022Z,2.21
2017-01-13T00:04:25.762Z,2.23
2017-01-13T00:05:36.508Z,2.16
2017-01-13T00:06:47.253Z,2.22
2017-01-13T00:07:58.011Z,2.26
2017-01-13T00:09:08.749Z,2.21
2017-01-13T00:10:19.495Z,2.26
2017-01-13T00:11:30.216Z,2.26
2017-01-13T00:12:40.947Z,2.25
2017-01-13T00:13:51.655Z,2.3
2017-01-13T00:15:02.409Z,2.23
2017-01-13T00:16:13.112Z,2.23
2017-01-13T00:17:23.850Z,2.23
2017-01-13T00:18:34.563Z,2.25
2017-01-13T00:19:45.287Z,2.19
2017-01-13T00:20:56.008Z,2.18
2017-01-13T00:22:06.755Z,2.28
2017-01-13T00:23:17.472Z,2.32
2017-01-13T00:24:28.186Z,2.25
2017-01-13T00:25:38.918Z,2.36
2017-01-13T00:26:49.639Z,2.32
2017-01-13T00:28:00.339Z,2.41
2017-01-13T00:29:11.438Z,2.33
2017-01-13T00:30:22.181Z,2.39
2017-01-13T00:31:32.905Z,2.28
2017-01-13T00:32:43.625Z,2.36
2017-01-13T00:33:54.315Z,2.37
2017-01-13T00:35:05.044Z,2.4
2017-01-13T00:36:15.761Z,2.33
2017-01-13T00:37:26.506Z,2.37
2017-01-13T00:38:37.198Z,2.28
2017-01-13T00:39:47.949Z,2.32
2017-01-13T00:40:58.665Z,2.46
2017-01-13T00:42:09.387Z,2.41
2017-01-13T00:43:20.113Z,2.28
2017-01-13T00:44:30.824Z,2.34
2017-01-13T00:45:41.558Z,2.37
2017-01-13T00:46:52.304Z,2.37
2017-01-13T00:48:03.013Z,2.39
2017-01-13T00:49:13.720Z,2.4
2017-01-13T00:50:24.456Z,2.32
2017-01-13T00:51:35.188Z,2.39
2017-01-13T00:52:45.911Z,2.34
2017-01-13T00:53:56.633Z,2.36
2017-01-13T00:55:07.367Z,2.18
2017-01-13T00:56:18.092Z,2.21
2017-01-13T00:57:28.806Z,2.25
2017-01-13T00:58:39.537Z,2.22
2017-01-13T00:59:50.260Z,2.23
2017-01-13T01:01:00.980Z,2.26
2017-01-13T01:02:11.715Z,2.23
2017-01-13T01:03:22.421Z,2.21
2017-01-13T01:04:33.160Z,2.15
2017-01-13T01:05:43.893Z,2.25
2017-01-13T01:06:54.626Z,2.19
2017-01-13T01:08:05.381Z,2.14
2017-01-13T01:09:16.098Z,2.19
2017-01-13T01:10:26.828Z,2.07
2017-01-13T01:11:37.561Z,2.15
2017-01-13T01:12:48.286Z,2.18
2017-01-13T01:13:59.034Z,2.15
2017-01-13T01:15:09.746Z,2.12
2017-01-13T01:16:20.466Z,2.14
2017-01-13T01:17:31.216Z,2.14
2017-01-13T01:18:41.960Z,2.14
2017-01-13T01:19:52.687Z,2.04
2017-01-13T01:21:03.425Z,2.1
2017-01-13T01:22:14.148Z,2
2017-01-13T01:23:24.907Z,2.01
2017-01-13T01:24:35.650Z,1.98
2017-01-13T01:25:46.363Z,2.04
2017-01-13T01:26:57.105Z,1.98
2017-01-13T01:28:07.853Z,2.01
2017-01-13T01:29:18.585Z,2.03
2017-01-13T01:30:29.305Z,2.01
2017-01-13T01:31:40.001Z,2
2017-01-13T01:32:50.711Z,2.03
2017-01-13T01:34:01.412Z,2.05
2017-01-13T01:35:12.120Z,2.07
2017-01-13T01:36:22.859Z,1.92
2017-01-13T01:37:33.597Z,1.92
2017-01-13T01:38:44.319Z,2.05
2017-01-13T01:39:55.036Z,2.05
2017-01-13T01:41:05.782Z,2
2017-01-13T01:42:16.507Z,2
2017-01-13T01:43:27.255Z,1.97
2017-01-13T01:44:38.003Z,1.89
2017-01-13T01:45:48.724Z,1.98
2017-01-13T01:46:59.441Z,2.01
2017-01-13T01:48:10.187Z,1.97
2017-01-13T01:49:20.906Z,1.92
2017-01-13T01:50:31.639Z,1.93
2017-01-13T01:51:42.396Z,1.93
2017-01-13T01:52:53.110Z,1.97
2017-01-13T01:54:03.821Z,1.82
2017-01-13T01:55:14.523Z,1.89
2017-01-13T01:56:25.238Z,1.93
2017-01-13T01:57:35.961Z,1.82
2017-01-13T01:58:46.676Z,1.89
2017-01-13T01:59:57.418Z,1.85
2017-01-13T02:01:08.143Z,1.89
2017-01-13T02:02:18.886Z,1.84
2017-01-13T02:03:29.610Z,1.79
2017-01-13T02:04:40.318Z,1.84
2017-01-13T02:05:51.056Z,1.82
2017-01-13T02:07:01.794Z,1.85
2017-01-13T02:08:12.504Z,1.84
2017-01-13T02:09:23.247Z,1.88
2017-01-13T02:10:33.994Z,1.82
2017-01-13T02:11:44.732Z,1.86
2017-01-13T02:12:55.450Z,1.85
2017-01-13T02:14:06.178Z,1.85
2017-01-13T02:15:16.894Z,1.84
2017-01-13T02:16:27.602Z,1.84
2017-01-13T02:17:38.337Z,1.86
2017-01-13T02:18:49.106Z,1.81
2017-01-13T02:19:59.825Z,1.79
2017-01-13T02:21:10.534Z,1.74
2017-01-13T02:22:21.250Z,1.82
2017-01-13T02:23:31.950Z,1.85
2017-01-13T02:24:43.070Z,1.79
2017-01-13T02:25:53.791Z,1.82
2017-01-13T02:27:04.913Z,1.86
2017-01-13T02:28:15.626Z,1.84
2017-01-13T02:29:26.368Z,1.86
2017-01-13T02:30:37.089Z,1.76
2017-01-13T02:31:47.786Z,1.79
2017-01-13T02:32:58.485Z,1.86
2017-01-13T02:34:09.205Z,1.75
2017-01-13T02:35:19.936Z,1.85
2017-01-13T02:36:30.652Z,1.81
2017-01-13T02:37:41.366Z,1.88
2017-01-13T02:38:52.086Z,1.92
2017-01-13T02:40:02.816Z,1.86
2017-01-13T02:41:13.559Z,1.79
2017-01-13T02:42:24.282Z,1.84
2017-01-13T02:43:35.007Z,1.85
2017-01-13T02:44:45.751Z,1.93
2017-01-13T02:45:56.441Z,1.86
2017-01-13T02:47:07.545Z,1.81
2017-01-13T02:48:18.280Z,1.93
2017-01-13T02:49:29.000Z,1.82
2017-01-13T02:50:40.082Z,1.79
2017-01-13T02:51:51.039Z,1.95
2017-01-13T02:53:01.900Z,1.79
2017-01-13T02:54:12.619Z,1.86
2017-01-13T02:55:23.340Z,1.93
2017-01-13T02:56:34.061Z,1.95
2017-01-13T02:57:44.787Z,1.95
2017-01-13T02:58:55.504Z,1.93
2017-01-13T03:00:06.605Z,1.86
2017-01-13T03:01:17.317Z,1.89
2017-01-13T03:02:28.040Z,1.92
2017-01-13T03:03:38.755Z,1.78
2017-01-13T03:04:49.460Z,1.93
2017-01-13T03:06:00.170Z,1.88
2017-01-13T03:07:10.873Z,1.79
2017-01-13T03:08:21.624Z,1.86
2017-01-13T03:09:32.393Z,1.89
2017-01-13T03:10:43.508Z,1.82
2017-01-13T03:11:54.211Z,1.79
2017-01-13T03:13:04.931Z,1.82
2017-01-13T03:14:15.666Z,1.76
2017-01-13T03:15:26.390Z,1.75
2017-01-13T03:16:37.108Z,1.79
2017-01-13T03:17:47.837Z,1.67
2017-01-13T03:18:58.575Z,1.7
2017-01-13T03:20:09.299Z,1.76
2017-01-13T03:21:20.041Z,1.7
2017-01-13T03:22:30.745Z,1.7
2017-01-13T03:23:41.466Z,1.71
2017-01-13T03:24:52.205Z,1.63
2017-01-13T03:26:02.926Z,1.64
2017-01-13T03:27:13.651Z,1.56
2017-01-13T03:28:24.376Z,1.53
2017-01-13T03:29:35.139Z,1.53
2017-01-13T03:30:45.869Z,1.53
2017-01-13T03:31:56.613Z,1.36
2017-01-13T03:33:07.352Z,1.36
2017-01-13T03:34:18.082Z,1.36
2017-01-13T03:35:28.805Z,1.39
2017-01-13T03:36:39.525Z,1.38
2017-01-13T03:37:50.248Z,1.28
2017-01-13T03:39:00.982Z,1.28
2017-01-13T03:40:11.727Z,1.22
2017-01-13T03:41:22.452Z,1.36
2017-01-13T03:42:33.552Z,1.2
2017-01-13T03:43:44.252Z,1.12
2017-01-13T03:44:54.990Z,1.12
2017-01-13T03:46:05.692Z,1.16
2017-01-13T03:47:16.432Z,1.02
2017-01-13T03:48:27.134Z,1.07
2017-01-13T03:49:37.833Z,1.02
2017-01-13T03:50:48.541Z,1.04
2017-01-13T03:51:59.267Z,0.94
2017-01-13T03:53:09.969Z,0.91
2017-01-13T03:54:20.707Z,0.91
2017-01-13T03:55:31.426Z,0.89
2017-01-13T03:56:42.151Z,0.88
2017-01-13T03:57:52.879Z,0.91
2017-01-13T03:59:03.624Z,0.89
2017-01-13T04:00:14.338Z,0.88
2017-01-13T04:01:25.062Z,0.85
2017-01-13T04:02:35.779Z,0.78
2017-01-13T04:03:46.505Z,0.78
2017-01-13T04:04:57.247Z,0.84
2017-01-13T04:06:07.951Z,0.78
2017-01-13T04:07:18.672Z,0.81
2017-01-13T04:08:29.406Z,0.84
2017-01-13T04:09:40.114Z,0.71
2017-01-13T04:10:50.813Z,0.84
2017-01-13T04:12:01.548Z,0.73
2017-01-13T04:13:12.269Z,0.88
2017-01-13T04:14:23.015Z,0.84
2017-01-13T04:15:33.741Z,0.86
2017-01-13T04:16:44.439Z,0.86
2017-01-13T04:17:55.138Z,0.82
2017-01-13T04:19:05.872Z,0.88
2017-01-13T04:20:16.591Z,0.86
2017-01-13T04:21:27.327Z,0.89
2017-01-13T04:22:38.040Z,1
2017-01-13T04:23:48.766Z,0.96
2017-01-13T04:24:59.500Z,1.04
2017-01-13T04:26:10.206Z,1.06
2017-01-13T04:27:20.903Z,1.07
2017-01-13T04:28:31.617Z,1.04
2017-01-13T04:29:42.383Z,1.03
2017-01-13T04:30:53.105Z,1.03
2017-01-13T04:32:03.839Z,1.02
2017-01-13T04:33:14.579Z,1.06
2017-01-13T04:34:25.278Z,1.13
2017-01-13T04:35:36.015Z,1.09
2017-01-13T04:36:46.717Z,1.04
2017-01-13T04:37:57.814Z,1.09
2017-01-13T04:39:08.538Z,1.09
2017-01-13T04:40:19.247Z,1.1
2017-01-13T04:41:30.348Z,1.18
2017-01-13T04:42:41.065Z,1.18
2017-01-13T04:43:51.789Z,1.2
2017-01-13T04:45:02.514Z,1.25
2017-01-13T04:46:13.228Z,1.18
2017-01-13T04:47:23.985Z,1.32
2017-01-13T04:48:34.705Z,1.3
2017-01-13T04:49:45.415Z,1.27
2017-01-13T04:50:56.165Z,1.25
2017-01-13T04:52:06.865Z,1.22
2017-01-13T04:53:17.611Z,1.3
2017-01-13T04:54:28.325Z,1.32
2017-01-13T04:55:39.024Z,1.34
2017-01-13T04:56:49.745Z,1.25
2017-01-13T04:58:00.491Z,1.31
2017-01-13T04:59:11.232Z,1.34
2017-01-13T05:00:21.979Z,1.31
2017-01-13T05:01:32.728Z,1.34
2017-01-13T05:02:43.444Z,1.28
2017-01-13T05:03:54.174Z,1.25
2017-01-13T05:05:04.894Z,1.36
2017-01-13T05:06:15.608Z,1.31
2017-01-13T05:07:26.341Z,1.34
2017-01-13T05:08:37.057Z,1.42
2017-01-13T05:09:47.796Z,1.43
2017-01-13T05:10:58.519Z,1.43
2017-01-13T05:12:09.249Z,1.4
2017-01-13T05:13:19.982Z,1.4
2017-01-13T05:14:30.711Z,1.39
2017-01-13T05:15:41.428Z,1.39
2017-01-13T05:16:52.153Z,1.52
2017-01-13T05:18:02.854Z,1.45
2017-01-13T05:19:13.570Z,1.49
2017-01-13T05:20:24.291Z,1.56
2017-01-13T05:21:35.012Z,1.58
2017-01-13T05:22:45.750Z,1.52
2017-01-13T05:23:56.497Z,1.5
2017-01-13T05:25:07.229Z,1.63
2017-01-13T05:26:17.922Z,1.63
2017-01-13T05:27:28.641Z,1.58
2017-01-13T05:28:39.343Z,1.57
2017-01-13T05:29:50.050Z,1.6
2017-01-13T05:31:00.771Z,1.56
2017-01-13T05:32:11.492Z,1.61
2017-01-13T05:33:22.221Z,1.61
2017-01-13T05:34:32.935Z,1.63
2017-01-13T05:35:43.659Z,1.66
2017-01-13T05:36:54.388Z,1.63
2017-01-13T05:38:05.080Z,1.53
2017-01-13T05:39:15.804Z,1.61
2017-01-13T05:40:26.521Z,1.74
2017-01-13T05:41:37.238Z,1.61
2017-01-13T05:42:47.967Z,1.76
2017-01-13T05:43:58.712Z,1.71
2017-01-13T05:45:09.455Z,1.76
2017-01-13T05:46:20.180Z,1.79
2017-01-13T05:47:30.922Z,1.76
2017-01-13T05:48:41.644Z,1.75
2017-01-13T05:49:52.407Z,1.88
2017-01-13T05:51:03.114Z,1.89
2017-01-13T05:52:13.859Z,1.93
2017-01-13T05:53:24.623Z,1.95
2017-01-13T05:54:35.352Z,1.95
2017-01-13T05:55:46.099Z,1.84
2017-01-13T05:56:56.818Z,1.84
2017-01-13T05:58:07.936Z,1.98
2017-01-13T05:59:18.702Z,1.82
2017-01-13T06:00:29.432Z,1.92
2017-01-13T06:01:40.166Z,2.01
2017-01-13T06:02:50.876Z,2.01
2017-01-13T06:04:01.591Z,1.98
2017-01-13T06:05:12.309Z,2.04
2017-01-13T06:06:23.054Z,2
2017-01-13T06:07:33.808Z,2.03
2017-01-13T06:08:44.520Z,1.98
2017-01-13T06:09:55.238Z,2
2017-01-13T06:11:05.970Z,2
2017-01-13T06:12:16.705Z,1.98
2017-01-13T06:13:27.412Z,2.04
2017-01-13T06:14:38.155Z,2
2017-01-13T06:15:48.874Z,2.1
2017-01-13T06:16:59.615Z,2.05
2017-01-13T06:18:10.389Z,2.07
2017-01-13T06:19:21.518Z,2.05
2017-01-13T06:20:32.231Z,2.08
2017-01-13T06:21:42.981Z,2.04
2017-01-13T06:22:53.705Z,2.14
2017-01-13T06:24:04.440Z,2.07
2017-01-13T06:25:15.172Z,2.14
2017-01-13T06:26:25.908Z,2.12
2017-01-13T06:27:36.628Z,2.12
2017-01-13T06:28:47.375Z,2.15
2017-01-13T06:29:58.127Z,2.19
2017-01-13T06:31:08.850Z,2.14
2017-01-13T06:32:19.545Z,2.21
2017-01-13T06:33:30.258Z,2.19
2017-01-13T06:34:40.966Z,2.25
2017-01-13T06:35:51.666Z,2.22
2017-01-13T06:37:02.382Z,2.22
2017-01-13T06:38:13.094Z,2.19
2017-01-13T06:39:23.836Z,2.22
2017-01-13T06:40:34.562Z,2.23
2017-01-13T06:41:45.307Z,2.18
2017-01-13T06:42:56.034Z,2.3
2017-01-13T06:44:06.770Z,2.18
2017-01-13T06:45:17.496Z,2.28
2017-01-13T06:46:28.238Z,2.26
2017-01-13T06:47:38.943Z,2.36
2017-01-13T06:48:49.658Z,2.33
2017-01-13T06:50:00.401Z,2.34
2017-01-13T06:51:11.123Z,2.26
2017-01-13T06:52:21.847Z,2.4
2017-01-13T06:53:32.550Z,2.4
2017-01-13T06:54:43.268Z,2.37
2017-01-13T06:55:53.985Z,2.39
2017-01-13T06:57:04.705Z,2.33
2017-01-13T06:58:15.426Z,2.33
2017-01-13T06:59:26.172Z,2.39
2017-01-13T07:00:36.918Z,2.41
2017-01-13T07:01:47.640Z,2.44
2017-01-13T07:02:58.393Z,2.46
2017-01-13T07:04:09.103Z,2.4
2017-01-13T07:05:19.824Z,2.39
2017-01-13T07:06:30.533Z,2.52
2017-01-13T07:07:41.276Z,2.55
2017-01-13T07:08:52.019Z,2.5
2017-01-13T07:10:02.718Z,2.5
2017-01-13T07:11:13.429Z,2.46
2017-01-13T07:12:24.153Z,2.51
2017-01-13T07:13:34.871Z,2.62
2017-01-13T07:14:45.600Z,2.58
2017-01-13T07:15:56.287Z,2.54
2017-01-13T07:17:07.009Z,2.54
2017-01-13T07:18:17.763Z,2.65
2017-01-13T07:19:28.479Z,2.58
2017-01-13T07:20:39.197Z,2.65
2017-01-13T07:21:49.903Z,2.65
2017-01-13T07:23:00.620Z,2.64
2017-01-13T07:24:11.743Z,2.64
2017-01-13T07:25:22.440Z,2.61
2017-01-13T07:26:33.152Z,2.76
2017-01-13T07:27:43.874Z,2.73
2017-01-13T07:28:54.595Z,2.64
2017-01-13T07:30:05.302Z,2.72
2017-01-13T07:31:16.011Z,2.75
2017-01-13T07:32:26.718Z,2.72
2017-01-13T07:33:37.469Z,2.7
2017-01-13T07:34:48.213Z,2.75
2017-01-13T07:35:58.949Z,2.73
2017-01-13T07:37:09.695Z,2.72
2017-01-13T07:38:20.441Z,2.65
2017-01-13T07:39:31.147Z,2.77
2017-01-13T07:40:41.905Z,2.72
2017-01-13T07:41:52.635Z,2.77
2017-01-13T07:43:03.361Z,2.75
2017-01-13T07:44:14.105Z,2.72
2017-01-13T07:45:24.877Z,2.72
2017-01-13T07:46:35.994Z,2.75
2017-01-13T07:47:47.110Z,2.72
2017-01-13T07:48:57.827Z,2.72
2017-01-13T07:50:08.572Z,2.68
2017-01-13T07:51:19.282Z,2.72
2017-01-13T07:52:30.023Z,2.73
2017-01-13T07:53:40.768Z,2.77
2017-01-13T07:54:51.496Z,2.76
2017-01-13T07:56:02.265Z,2.75
2017-01-13T07:57:12.999Z,2.73
2017-01-13T07:58:23.769Z,2.76
2017-01-13T07:59:34.520Z,2.76
2017-01-13T08:00:45.249Z,2.76
2017-01-13T08:01:55.970Z,2.76
2017-01-13T08:03:06.689Z,2.75
2017-01-13T08:04:17.440Z,2.73
2017-01-13T08:05:28.171Z,2.75
2017-01-13T08:06:38.921Z,2.76
2017-01-13T08:07:49.638Z,2.75
2017-01-13T08:09:00.370Z,2.75
2017-01-13T08:10:11.111Z,2.75
2017-01-13T08:11:21.841Z,2.73
2017-01-13T08:12:32.580Z,2.76
2017-01-13T08:13:43.307Z,2.8
2017-01-13T08:14:54.040Z,2.79
2017-01-13T08:16:05.161Z,2.87
2017-01-13T08:17:15.907Z,2.87
2017-01-13T08:18:26.629Z,2.82
2017-01-13T08:19:37.361Z,2.79
2017-01-13T08:20:48.071Z,2.83
2017-01-13T08:21:58.795Z,2.87
2017-01-13T08:23:09.525Z,2.83
2017-01-13T08:24:20.238Z,2.87
2017-01-13T08:25:30.966Z,2.87
2017-01-13T08:26:41.686Z,2.87
2017-01-13T08:27:52.408Z,2.87
2017-01-13T08:29:03.146Z,2.87
2017-01-13T08:30:13.877Z,2.87
2017-01-13T08:31:24.638Z,2.82
2017-01-13T08:32:35.385Z,2.8
2017-01-13T08:33:46.087Z,2.87
2017-01-13T08:34:56.835Z,2.83
2017-01-13T08:36:07.556Z,2.83
2017-01-13T08:37:18.273Z,2.82
2017-01-13T08:38:28.999Z,2.82
2017-01-13T08:39:39.720Z,2.83
2017-01-13T08:40:50.438Z,2.82
2017-01-13T08:42:01.157Z,2.87
2017-01-13T08:43:11.883Z,2.9
2017-01-13T08:44:22.624Z,2.87
2017-01-13T08:45:33.326Z,2.77
2017-01-13T08:46:44.083Z,2.77
2017-01-13T08:47:54.808Z,2.8
2017-01-13T08:49:05.538Z,2.72
2017-01-13T08:50:16.280Z,2.72
2017-01-13T08:51:27.050Z,2.76
2017-01-13T08:52:37.773Z,2.68
2017-01-13T08:53:48.513Z,2.69
2017-01-13T08:54:59.264Z,2.75
2017-01-13T08:56:09.986Z,2.73
2017-01-13T08:57:20.726Z,2.65
2017-01-13T08:58:31.430Z,2.64
2017-01-13T08:59:42.540Z,2.72
2017-01-13T09:00:53.268Z,2.68
2017-01-13T09:02:04.011Z,2.64
2017-01-13T09:03:14.765Z,2.59
2017-01-13T09:04:25.499Z,2.65
2017-01-13T09:05:36.206Z,2.57
2017-01-13T09:06:46.944Z,2.58
2017-01-13T09:07:57.720Z,2.52
2017-01-13T09:09:08.437Z,2.51
2017-01-13T09:10:19.158Z,2.52
2017-01-13T09:11:29.886Z,2.57
2017-01-13T09:12:40.608Z,2.52
2017-01-13T09:13:51.318Z,2.5
2017-01-13T09:15:02.071Z,2.47
2017-01-13T09:16:12.813Z,2.5
2017-01-13T09:17:23.541Z,2.43
2017-01-13T09:18:34.280Z,2.46
2017-01-13T09:19:45.402Z,2.54
2017-01-13T09:20:56.143Z,2.47
2017-01-13T09:22:06.872Z,2.43
2017-01-13T09:23:17.586Z,2.52
2017-01-13T09:24:28.335Z,2.51
2017-01-13T09:25:39.078Z,2.41
2017-01-13T09:26:49.799Z,2.39
2017-01-13T09:28:00.522Z,2.36
2017-01-13T09:29:11.230Z,2.41
2017-01-13T09:30:21.989Z,2.43
2017-01-13T09:31:32.735Z,2.41
2017-01-13T09:32:43.463Z,2.47
2017-01-13T09:33:54.183Z,2.41
2017-01-13T09:35:05.309Z,2.39
2017-01-13T09:36:16.419Z,2.55
2017-01-13T09:37:27.148Z,2.55
2017-01-13T09:38:37.870Z,2.47
2017-01-13T09:39:48.983Z,2.4
2017-01-13T09:40:59.713Z,2.52
2017-01-13T09:42:10.832Z,2.51
2017-01-13T09:43:21.550Z,2.47
2017-01-13T09:44:32.271Z,2.47
2017-01-13T09:45:42.988Z,2.47
2017-01-13T09:46:53.709Z,2.5
2017-01-13T09:48:04.430Z,2.57
2017-01-13T09:49:15.131Z,2.51
2017-01-13T09:50:25.875Z,2.52
2017-01-13T09:51:36.625Z,2.54
2017-01-13T09:52:47.361Z,2.54
2017-01-13T09:53:58.073Z,2.57
2017-01-13T09:55:08.788Z,2.55
2017-01-13T09:56:19.499Z,2.51
2017-01-13T09:57:30.248Z,2.54
2017-01-13T09:58:40.978Z,2.61
2017-01-13T09:59:51.696Z,2.65
2017-01-13T10:01:02.408Z,2.46
2017-01-13T10:02:13.161Z,2.52
2017-01-13T10:03:23.886Z,2.51
2017-01-13T10:04:34.624Z,2.55
2017-01-13T10:05:45.343Z,2.52
2017-01-13T10:06:56.049Z,2.64
2017-01-13T10:08:07.188Z,2.68
2017-01-13T10:09:17.914Z,2.64
2017-01-13T10:10:28.661Z,2.61
2017-01-13T10:11:39.407Z,2.62
2017-01-13T10:12:50.118Z,2.64
2017-01-13T10:14:00.853Z,2.7
2017-01-13T10:15:11.967Z,2.68
2017-01-13T10:16:22.716Z,2.61
2017-01-13T10:17:33.451Z,2.72
2017-01-13T10:18:44.225Z,2.73
2017-01-13T10:19:54.972Z,2.65
2017-01-13T10:21:05.696Z,2.73
2017-01-13T10:22:16.437Z,2.73
2017-01-13T10:23:27.170Z,2.76
2017-01-13T10:24:37.888Z,2.76
2017-01-13T10:25:48.607Z,2.75
2017-01-13T10:26:59.326Z,2.75
2017-01-13T10:28:10.039Z,2.76
2017-01-13T10:29:20.795Z,2.79
2017-01-13T10:30:31.515Z,2.82
2017-01-13T10:31:42.232Z,2.8
2017-01-13T10:32:52.960Z,2.87
2017-01-13T10:34:03.700Z,2.87
2017-01-13T10:35:14.398Z,2.85
2017-01-13T10:36:25.110Z,2.82
2017-01-13T10:37:35.835Z,2.8
2017-01-13T10:38:46.561Z,2.83
2017-01-13T10:39:57.262Z,2.85
2017-01-13T10:41:07.994Z,2.83
2017-01-13T10:42:18.699Z,2.82
2017-01-13T10:43:29.435Z,2.85
2017-01-13T10:44:40.168Z,2.9
2017-01-13T10:45:50.864Z,3
2017-01-13T10:47:01.602Z,2.97
2017-01-13T10:48:12.304Z,3.03
2017-01-13T10:49:23.015Z,3
2017-01-13T10:50:33.769Z,2.94
2017-01-13T10:51:44.511Z,2.94
2017-01-13T10:52:55.233Z,2.95
2017-01-13T10:54:05.978Z,2.98
2017-01-13T10:55:16.697Z,2.98
2017-01-13T10:56:27.419Z,3.05
2017-01-13T10:57:38.173Z,3.03
2017-01-13T10:58:48.886Z,3.03
2017-01-13T10:59:59.637Z,3.01
2017-01-13T11:01:10.378Z,3.11
2017-01-13T11:02:21.104Z,2.98
2017-01-13T11:03:31.850Z,3.06
2017-01-13T11:04:42.600Z,2.97
2017-01-13T11:05:53.338Z,3.03
2017-01-13T11:07:04.058Z,3.08
2017-01-13T11:08:14.786Z,2.93
2017-01-13T11:09:25.529Z,2.94
2017-01-13T11:10:36.226Z,3.05
2017-01-13T11:11:46.976Z,2.95
2017-01-13T11:12:57.710Z,2.95
2017-01-13T11:14:08.460Z,3.06
2017-01-13T11:15:19.161Z,2.91
2017-01-13T11:16:29.901Z,2.91
2017-01-13T11:17:40.672Z,2.98
2017-01-13T11:18:51.399Z,2.97
2017-01-13T11:20:02.136Z,2.85
2017-01-13T11:21:13.660Z,2.83
2017-01-13T11:22:24.382Z,2.85
2017-01-13T11:23:35.099Z,2.9
2017-01-13T11:24:45.832Z,2.93
2017-01-13T11:25:56.549Z,2.91
2017-01-13T11:27:07.290Z,2.88
2017-01-13T11:28:18.012Z,2.82
2017-01-13T11:29:28.769Z,2.93
2017-01-13T11:30:39.536Z,2.85
2017-01-13T11:31:50.272Z,2.88
2017-01-13T11:33:00.992Z,2.87
2017-01-13T11:34:11.700Z,2.77
2017-01-13T11:35:22.434Z,2.77
2017-01-13T11:36:33.160Z,2.75
2017-01-13T11:37:43.880Z,2.65
2017-01-13T11:38:54.626Z,2.69
2017-01-13T11:40:05.329Z,2.68
2017-01-13T11:41:16.052Z,2.61
2017-01-13T11:42:26.768Z,2.59
2017-01-13T11:43:37.492Z,2.58
2017-01-13T11:44:48.231Z,2.54
2017-01-13T11:45:58.982Z,2.64
2017-01-13T11:47:09.706Z,2.57
2017-01-13T11:48:20.441Z,2.54
2017-01-13T11:49:31.192Z,2.5
2017-01-13T11:50:41.937Z,2.47
2017-01-13T11:51:52.653Z,2.34
2017-01-13T11:53:03.363Z,2.4
2017-01-13T11:54:14.130Z,2.37
2017-01-13T11:55:24.870Z,2.44
2017-01-13T11:56:35.617Z,2.34
2017-01-13T11:57:46.360Z,2.39
2017-01-13T11:58:57.108Z,2.3
2017-01-13T12:00:07.858Z,2.28
2017-01-13T12:01:18.571Z,2.18
2017-01-13T12:02:29.305Z,2.22
2017-01-13T12:03:40.063Z,2.12
2017-01-13T12:04:50.810Z,2.1
2017-01-13T12:06:01.542Z,2.1
2017-01-13T12:07:12.277Z,2.05
2017-01-13T12:08:23.002Z,2.08
2017-01-13T12:09:33.747Z,1.98
2017-01-13T12:10:44.469Z,1.95
2017-01-13T12:11:55.161Z,1.98
2017-01-13T12:13:05.865Z,1.98
2017-01-13T12:14:16.587Z,1.92
2017-01-13T12:15:27.286Z,1.97
2017-01-13T12:16:38.030Z,1.88
2017-01-13T12:17:49.152Z,1.85
2017-01-13T12:19:00.274Z,1.84
2017-01-13T12:20:11.008Z,1.82
2017-01-13T12:21:21.734Z,1.66
2017-01-13T12:22:32.453Z,1.76
2017-01-13T12:23:43.175Z,1.7
2017-01-13T12:24:53.928Z,1.66
2017-01-13T12:26:04.666Z,1.7
2017-01-13T12:27:15.392Z,1.66
2017-01-13T12:28:26.131Z,1.66
2017-01-13T12:29:36.834Z,1.56
2017-01-13T12:30:47.575Z,1.61
2017-01-13T12:31:58.299Z,1.53
2017-01-13T12:33:09.075Z,1.6
2017-01-13T12:34:19.788Z,1.49
2017-01-13T12:35:30.506Z,1.52
2017-01-13T12:36:41.231Z,1.53
2017-01-13T12:37:51.959Z,1.46
2017-01-13T12:39:02.683Z,1.46
2017-01-13T12:40:13.819Z,1.49
2017-01-13T12:41:24.523Z,1.34
2017-01-13T12:42:35.240Z,1.38
2017-01-13T12:43:45.969Z,1.38
2017-01-13T12:44:56.685Z,1.42
2017-01-13T12:46:07.431Z,1.21
2017-01-13T12:47:18.155Z,1.22
2017-01-13T12:48:28.871Z,1.3
2017-01-13T12:49:39.584Z,1.2
2017-01-13T12:50:50.319Z,1.25
2017-01-13T12:52:01.041Z,1.1
2017-01-13T12:53:11.772Z,1.13
2017-01-13T12:54:22.493Z,1.09
2017-01-13T12:55:33.264Z,1.24
2017-01-13T12:56:43.988Z,1.16
2017-01-13T12:57:54.693Z,1.18
2017-01-13T12:59:05.439Z,1.18
2017-01-13T13:00:16.176Z,1.07
2017-01-13T13:01:26.932Z,1.02
2017-01-13T13:02:37.665Z,1.09
2017-01-13T13:03:48.772Z,1.04
2017-01-13T13:04:59.518Z,1.09
2017-01-13T13:06:10.256Z,1.02
2017-01-13T13:07:21.010Z,1.02
2017-01-13T13:08:31.771Z,1.04
2017-01-13T13:09:42.519Z,1.09
2017-01-13T13:10:53.248Z,1.06
2017-01-13T13:12:03.993Z,1.03
2017-01-13T13:13:14.707Z,1.04
2017-01-13T13:14:25.434Z,0.91
2017-01-13T13:15:36.170Z,1.04
2017-01-13T13:16:46.902Z,1.04
2017-01-13T13:17:57.618Z,1.09
2017-01-13T13:19:08.371Z,1.12
2017-01-13T13:20:19.483Z,1.06
2017-01-13T13:21:30.200Z,1.02
2017-01-13T13:22:40.922Z,1.06
2017-01-13T13:23:51.676Z,1.03
2017-01-13T13:25:02.393Z,1.09
2017-01-13T13:26:13.113Z,1.09
2017-01-13T13:27:23.860Z,1.18
2017-01-13T13:28:34.604Z,1.1
2017-01-13T13:29:45.358Z,1.13
2017-01-13T13:30:56.074Z,1.03
2017-01-13T13:32:06.801Z,1.14
2017-01-13T13:33:17.518Z,1.18
2017-01-13T13:34:28.243Z,1.21
2017-01-13T13:35:38.964Z,1.07
2017-01-13T13:36:49.698Z,1.12
2017-01-13T13:38:00.430Z,1.21
2017-01-13T13:39:11.144Z,1.28
2017-01-13T13:40:22.248Z,1.24
2017-01-13T13:41:32.966Z,1.22
2017-01-13T13:42:44.082Z,1.21
2017-01-13T13:43:54.803Z,1.14
2017-01-13T13:45:05.528Z,1.27
2017-01-13T13:46:16.250Z,1.27
2017-01-13T13:47:27.003Z,1.28
2017-01-13T13:48:37.712Z,1.27
2017-01-13T13:49:48.411Z,1.25
2017-01-13T13:50:59.109Z,1.32
2017-01-13T13:52:09.806Z,1.25
2017-01-13T13:53:20.546Z,1.27
2017-01-13T13:54:31.271Z,1.34
2017-01-13T13:55:42.009Z,1.39
2017-01-13T13:56:52.729Z,1.45
2017-01-13T13:58:03.480Z,1.39
2017-01-13T13:59:14.199Z,1.43
2017-01-13T14:00:24.906Z,1.36
2017-01-13T14:01:35.627Z,1.46
2017-01-13T14:02:46.369Z,1.4
2017-01-13T14:03:57.090Z,1.4
2017-01-13T14:05:07.829Z,1.39
2017-01-13T14:06:18.583Z,1.48
2017-01-13T14:07:29.335Z,1.4
2017-01-13T14:08:40.042Z,1.49
2017-01-13T14:09:50.771Z,1.43
2017-01-13T14:11:01.489Z,1.49
2017-01-13T14:12:12.176Z,1.53
2017-01-13T14:13:22.876Z,1.5
2017-01-13T14:14:33.644Z,1.52
2017-01-13T14:15:44.389Z,1.58
2017-01-13T14:16:55.112Z,1.5
2017-01-13T14:18:05.840Z,1.53
2017-01-13T14:19:16.568Z,1.56
2017-01-13T14:20:27.300Z,1.6
2017-01-13T14:21:38.024Z,1.61
2017-01-13T14:22:48.758Z,1.61
2017-01-13T14:23:59.497Z,1.64
2017-01-13T14:25:10.236Z,1.61
2017-01-13T14:26:20.962Z,1.61
2017-01-13T14:27:31.674Z,1.6
2017-01-13T14:28:42.410Z,1.6
2017-01-13T14:29:53.128Z,1.7
2017-01-13T14:31:04.238Z,1.66
2017-01-13T14:32:14.952Z,1.66
2017-01-13T14:33:25.708Z,1.68
2017-01-13T14:34:36.438Z,1.67
2017-01-13T14:35:47.156Z,1.63
2017-01-13T14:36:57.896Z,1.67
2017-01-13T14:38:08.652Z,1.63
2017-01-13T14:39:19.399Z,1.68
2017-01-13T14:40:30.131Z,1.74
2017-01-13T14:41:40.888Z,1.7
2017-01-13T14:42:51.630Z,1.74
2017-01-13T14:44:02.355Z,1.7
2017-01-13T14:45:13.091Z,1.71
2017-01-13T14:46:23.811Z,1.66
2017-01-13T14:47:34.568Z,1.76
2017-01-13T14:48:45.291Z,1.71
2017-01-13T14:49:56.006Z,1.68
2017-01-13T14:51:06.729Z,1.71
2017-01-13T14:52:17.434Z,1.71
2017-01-13T14:53:28.162Z,1.76
2017-01-13T14:54:38.886Z,1.75
2017-01-13T14:55:49.604Z,1.76
2017-01-13T14:57:00.361Z,1.71
2017-01-13T14:58:11.084Z,1.74
2017-01-13T14:59:21.803Z,1.81
2017-01-13T15:00:32.524Z,1.78
2017-01-13T15:01:43.245Z,1.7
2017-01-13T15:02:53.984Z,1.74
2017-01-13T15:04:04.687Z,1.74
2017-01-13T15:05:15.426Z,1.79
2017-01-13T15:06:26.181Z,1.81
2017-01-13T15:07:36.900Z,1.79
2017-01-13T15:08:47.674Z,1.81
2017-01-13T15:09:58.781Z,1.76
2017-01-13T15:11:09.489Z,1.78
2017-01-13T15:12:20.252Z,1.79
2017-01-13T15:13:30.973Z,1.74
2017-01-13T15:14:41.694Z,1.82
2017-01-13T15:15:52.794Z,1.74
2017-01-13T15:17:03.538Z,1.78
2017-01-13T15:18:14.241Z,1.81
2017-01-13T15:19:25.012Z,1.79
2017-01-13T15:20:35.749Z,1.85
2017-01-13T15:21:46.831Z,1.76
2017-01-13T15:22:57.563Z,1.71
2017-01-13T15:24:08.292Z,1.76
2017-01-13T15:25:19.029Z,1.82
2017-01-13T15:26:29.752Z,1.82
2017-01-13T15:27:40.484Z,1.81
2017-01-13T15:28:51.225Z,1.88
2017-01-13T15:30:01.967Z,1.86
2017-01-13T15:31:12.685Z,1.86
2017-01-13T15:32:23.431Z,1.88
2017-01-13T15:33:34.164Z,1.89
2017-01-13T15:34:44.905Z,1.82
2017-01-13T15:35:55.619Z,1.88
2017-01-13T15:37:06.770Z,1.85
2017-01-13T15:38:17.487Z,1.88
2017-01-13T15:39:28.207Z,1.86
2017-01-13T15:40:38.931Z,1.84
2017-01-13T15:41:49.662Z,1.89
2017-01-13T15:43:00.356Z,1.84
2017-01-13T15:44:11.095Z,1.84
2017-01-13T15:45:21.820Z,1.88